Time;durP1;ratioP1;P1;durP2;ratioP2;P2;SDS_P1;SDS_P2;PMS_P1;PMS_P2;Temp;Humidity;BMP_temperature;BMP_pressure;BME280_temperature;BME280_humidity;BME280_pressure;Samples;Min_cycle;Max_cycle;Signal;HPM_P1;HPM_P2
2021/10/05 00:00:31;;;;;;;5.05;1.80;;;16.50;60.00;;;;;;5040985;28;20029;-72
2021/10/05 00:02:58;;;;;;;5.15;1.48;;;16.50;60.20;;;;;;5043021;28;20029;-72
2021/10/05 00:05:24;;;;;;;5.90;2.05;;;16.40;60.20;;;;;;5039006;28;20029;-76
2021/10/05 00:07:51;;;;;;;3.60;1.67;;;16.40;60.30;;;;;;5037113;28;20025;-72
2021/10/05 00:10:17;;;;;;;4.55;1.90;;;16.30;60.40;;;;;;5048193;28;20036;-72
2021/10/05 00:12:44;;;;;;;29.95;17.80;;;16.30;60.80;;;;;;5039594;28;20492;-72
2021/10/05 00:15:12;;;;;;;34.00;25.23;;;16.20;61.00;;;;;;5039513;28;20048;-72
2021/10/05 00:17:39;;;;;;;16.63;10.63;;;16.20;61.40;;;;;;5044643;28;20025;-72
2021/10/05 00:20:07;;;;;;;6.00;2.65;;;16.30;62.00;;;;;;5034469;28;20434;-72
2021/10/05 00:22:33;;;;;;;6.53;1.33;;;16.30;61.60;;;;;;5038395;28;20049;-72
2021/10/05 00:25:00;;;;;;;1.80;0.90;;;16.30;61.70;;;;;;5035989;28;20013;-72
2021/10/05 00:27:26;;;;;;;5.72;1.08;;;16.30;61.60;;;;;;5042321;28;20029;-73
2021/10/05 00:29:53;;;;;;;4.00;1.08;;;16.30;61.50;;;;;;5044675;28;20017;-72
2021/10/05 00:32:19;;;;;;;7.18;1.85;;;16.30;61.30;;;;;;5038492;28;20030;-73
2021/10/05 00:34:46;;;;;;;4.57;1.50;;;16.30;61.40;;;;;;5046908;28;20040;-72
2021/10/05 00:37:13;;;;;;;5.35;1.77;;;16.30;61.30;;;;;;5051907;28;20491;-71
2021/10/05 00:39:39;;;;;;;2.85;1.10;;;16.20;61.30;;;;;;5038120;28;20021;-73
2021/10/05 00:42:06;;;;;;;4.82;1.20;;;16.20;61.50;;;;;;5039279;28;20044;-71
2021/10/05 00:44:34;;;;;;;10.05;1.80;;;16.20;61.60;;;;;;5034786;28;20025;-74
2021/10/05 00:47:09;;;;;;;4.18;1.40;;;16.20;61.80;;;;;;5036952;28;20049;-72
2021/10/05 00:49:37;;;;;;;2.88;1.30;;;16.20;61.90;;;;;;5035641;28;20023;-72
2021/10/05 00:52:05;;;;;;;6.53;1.83;;;16.10;61.80;;;;;;5040756;28;20400;-72
2021/10/05 00:54:34;;;;;;;4.35;1.73;;;16.10;61.80;;;;;;5042249;28;20025;-72
2021/10/05 00:57:01;;;;;;;5.05;1.20;;;16.00;62.00;;;;;;5047017;28;20025;-71
2021/10/05 00:59:30;;;;;;;5.32;1.85;;;16.00;62.10;;;;;;5060130;28;20064;-72
2021/10/05 01:01:57;;;;;;;6.55;1.95;;;15.90;62.20;;;;;;5046815;28;20095;-72
2021/10/05 01:04:23;;;;;;;7.57;2.22;;;15.90;62.40;;;;;;5038894;28;20025;-72
2021/10/05 01:07:05;;;;;;;7.03;1.38;;;15.90;62.50;;;;;;5034070;28;20116;-71
2021/10/05 01:09:33;;;;;;;6.55;1.30;;;15.90;62.70;;;;;;5055272;28;20090;-72
2021/10/05 01:12:00;;;;;;;8.60;2.58;;;15.80;62.70;;;;;;5035182;28;20021;-76
2021/10/05 01:14:27;;;;;;;6.05;1.48;;;15.80;62.80;;;;;;5040400;28;20026;-72
2021/10/05 01:16:57;;;;;;;6.07;1.20;;;15.80;62.90;;;;;;5038034;28;20071;-71
2021/10/05 01:19:24;;;;;;;4.75;1.35;;;15.80;63.10;;;;;;5041646;28;20104;-72
2021/10/05 01:21:51;;;;;;;26.02;14.05;;;15.80;63.10;;;;;;5035776;28;20187;-74
2021/10/05 01:24:20;;;;;;;22.50;15.82;;;15.80;63.30;;;;;;5041542;28;20017;-72
2021/10/05 01:26:46;;;;;;;9.35;3.35;;;15.80;63.30;;;;;;5037021;28;20480;-72
2021/10/05 01:29:18;;;;;;;3.85;1.75;;;15.80;63.40;;;;;;5035535;28;20413;-72
2021/10/05 01:31:47;;;;;;;8.07;2.80;;;15.80;63.30;;;;;;5034753;28;20021;-74
2021/10/05 01:34:14;;;;;;;5.95;1.13;;;15.80;63.30;;;;;;5041975;28;20535;-73
2021/10/05 01:36:41;;;;;;;3.63;1.25;;;15.90;63.60;;;;;;5044827;28;20135;-72
2021/10/05 01:39:21;;;;;;;5.35;1.80;;;15.90;63.50;;;;;;5037336;28;20029;-72
2021/10/05 01:41:48;;;;;;;5.30;1.15;;;15.80;63.40;;;;;;5034301;28;20035;-72
2021/10/05 01:44:15;;;;;;;3.75;1.15;;;15.80;63.40;;;;;;5038633;28;20013;-72
2021/10/05 01:46:41;;;;;;;2.72;0.85;;;15.80;63.80;;;;;;5041238;28;20024;-73
2021/10/05 01:49:08;;;;;;;2.92;1.33;;;15.80;63.60;;;;;;5038651;28;20083;-71
2021/10/05 01:51:34;;;;;;;5.40;1.30;;;15.80;63.60;;;;;;5044671;28;20071;-71
2021/10/05 01:54:01;;;;;;;6.97;1.92;;;15.80;63.80;;;;;;5038629;28;20017;-72
2021/10/05 01:56:27;;;;;;;2.65;1.13;;;15.70;63.80;;;;;;5040446;28;20024;-72
2021/10/05 01:58:54;;;;;;;4.65;1.40;;;15.70;64.00;;;;;;5040830;28;20091;-73
2021/10/05 02:01:20;;;;;;;5.88;2.22;;;15.70;64.10;;;;;;5040009;28;20129;-72
2021/10/05 02:03:47;;;;;;;2.25;1.10;;;15.80;64.10;;;;;;5036050;28;20055;-72
2021/10/05 02:06:14;;;;;;;5.07;1.42;;;15.70;64.00;;;;;;5039869;28;20374;-73
2021/10/05 02:08:40;;;;;;;6.25;1.17;;;15.70;64.00;;;;;;5044827;28;20026;-73
2021/10/05 02:11:07;;;;;;;8.23;2.10;;;15.70;64.30;;;;;;5035514;28;20049;-72
2021/10/05 02:13:35;;;;;;;3.80;1.23;;;15.60;64.30;;;;;;5035811;28;20590;-72
2021/10/05 02:16:02;;;;;;;2.58;1.20;;;15.70;64.40;;;;;;5043240;28;20385;-72
2021/10/05 02:18:28;;;;;;;4.78;1.73;;;15.70;64.50;;;;;;5041071;28;20475;-73
2021/10/05 02:20:55;;;;;;;10.25;2.08;;;15.70;64.50;;;;;;5038218;28;20040;-72
2021/10/05 02:23:21;;;;;;;5.43;1.35;;;15.60;64.30;;;;;;5040783;28;20477;-72
2021/10/05 02:25:48;;;;;;;6.78;1.35;;;15.70;64.30;;;;;;5040538;28;20023;-72
2021/10/05 02:28:14;;;;;;;12.02;2.00;;;15.60;64.30;;;;;;5034140;28;20006;-73
2021/10/05 02:30:41;;;;;;;9.52;2.20;;;15.60;64.30;;;;;;5042773;28;20029;-73
2021/10/05 02:33:07;;;;;;;5.75;1.45;;;15.60;64.40;;;;;;5038371;28;20018;-74
2021/10/05 02:35:34;;;;;;;4.38;1.15;;;15.50;64.30;;;;;;5036373;28;20044;-76
2021/10/05 02:38:00;;;;;;;3.80;1.52;;;15.50;64.40;;;;;;5041928;28;20494;-73
2021/10/05 02:40:27;;;;;;;1.52;1.15;;;15.50;64.50;;;;;;5044255;28;20025;-72
2021/10/05 02:42:53;;;;;;;4.15;1.33;;;15.50;64.40;;;;;;5044675;28;20029;-74
2021/10/05 02:45:20;;;;;;;4.95;1.00;;;15.50;64.40;;;;;;5043964;28;20059;-72
2021/10/05 02:47:46;;;;;;;4.43;1.23;;;15.50;64.50;;;;;;5039506;28;20025;-72
2021/10/05 02:50:13;;;;;;;2.45;1.20;;;15.50;64.40;;;;;;5044495;28;20032;-77
2021/10/05 02:52:39;;;;;;;4.25;1.45;;;15.50;64.40;;;;;;5040133;28;20075;-72
2021/10/05 02:55:06;;;;;;;7.80;2.05;;;15.40;64.60;;;;;;5034258;28;20025;-72
2021/10/05 02:57:33;;;;;;;3.58;1.48;;;15.50;64.80;;;;;;5038224;28;20139;-72
2021/10/05 02:59:59;;;;;;;5.05;1.55;;;15.50;64.80;;;;;;5041919;28;20028;-72
2021/10/05 03:02:26;;;;;;;2.85;1.13;;;15.50;64.70;;;;;;5035949;28;20029;-71
2021/10/05 03:04:52;;;;;;;6.57;1.60;;;15.40;64.80;;;;;;5040197;28;20059;-76
2021/10/05 03:07:19;;;;;;;3.85;1.20;;;15.40;64.70;;;;;;5043423;28;20452;-71
2021/10/05 03:09:45;;;;;;;7.00;1.85;;;15.40;64.70;;;;;;5027555;28;20041;-72
2021/10/05 03:12:12;;;;;;;3.65;1.15;;;15.40;64.70;;;;;;5041277;28;20036;-74
2021/10/05 03:14:38;;;;;;;5.22;0.98;;;15.40;64.70;;;;;;5037885;28;20035;-72
2021/10/05 03:17:05;;;;;;;2.10;0.80;;;15.40;64.80;;;;;;5039949;28;20047;-72
2021/10/05 03:19:31;;;;;;;2.97;0.68;;;15.30;64.80;;;;;;5047830;28;20844;-76
2021/10/05 03:21:57;;;;;;;5.38;1.77;;;15.30;64.70;;;;;;5043880;28;20123;-73
2021/10/05 03:24:25;;;;;;;5.35;1.05;;;15.30;64.90;;;;;;5047022;28;20045;-72
2021/10/05 03:26:52;;;;;;;6.53;1.27;;;15.30;65.00;;;;;;5047397;28;20028;-75
2021/10/05 03:29:19;;;;;;;1.98;1.00;;;15.30;65.10;;;;;;5041639;28;20057;-72
2021/10/05 03:31:45;;;;;;;5.25;1.13;;;15.30;65.20;;;;;;5047427;28;20017;-75
2021/10/05 03:34:11;;;;;;;2.42;1.08;;;15.30;65.40;;;;;;5049628;28;20484;-72
2021/10/05 03:36:38;;;;;;;5.43;1.48;;;15.40;65.30;;;;;;5045849;28;20358;-72
2021/10/05 03:39:04;;;;;;;10.10;1.80;;;15.30;65.30;;;;;;5050631;28;20026;-74
2021/10/05 03:41:31;;;;;;;5.53;1.25;;;15.30;65.50;;;;;;5045044;28;20025;-74
2021/10/05 03:43:58;;;;;;;3.28;1.15;;;15.30;65.60;;;;;;5037724;28;20017;-72
2021/10/05 03:46:25;;;;;;;4.25;1.20;;;15.20;65.50;;;;;;5049239;28;20017;-74
2021/10/05 03:48:52;;;;;;;2.65;0.95;;;15.20;65.80;;;;;;5039471;28;20021;-71
2021/10/05 03:51:18;;;;;;;4.75;1.10;;;15.20;66.00;;;;;;5039483;28;20021;-72
2021/10/05 03:53:45;;;;;;;7.72;2.78;;;15.20;66.10;;;;;;5045985;28;20028;-72
2021/10/05 03:56:12;;;;;;;3.40;1.35;;;15.20;66.20;;;;;;5044909;28;20021;-70
2021/10/05 03:58:38;;;;;;;1.02;0.90;;;15.20;66.20;;;;;;5044672;28;20437;-68
2021/10/05 04:01:04;;;;;;;5.43;2.45;;;15.20;66.50;;;;;;5043017;28;20560;-69
2021/10/05 04:03:32;;;;;;;3.58;1.52;;;15.20;66.30;;;;;;5043079;28;20017;-70
2021/10/05 04:05:58;;;;;;;6.63;1.63;;;15.20;66.30;;;;;;5034849;28;20386;-69
2021/10/05 04:08:25;;;;;;;5.90;2.83;;;15.20;66.50;;;;;;5048636;28;20023;-70
2021/10/05 04:10:52;;;;;;;21.17;15.63;;;15.20;66.40;;;;;;5045135;28;20095;-86
2021/10/05 04:13:27;;;;;;;19.65;10.38;;;15.30;66.50;;;;;;5043535;28;20032;-71
2021/10/05 04:15:54;;;;;;;3.80;2.28;;;15.20;66.40;;;;;;5044510;28;20034;-68
2021/10/05 04:18:20;;;;;;;6.03;1.15;;;15.30;66.40;;;;;;5048286;28;20024;-72
2021/10/05 04:20:47;;;;;;;4.85;1.73;;;15.30;66.40;;;;;;5042197;28;20029;-70
2021/10/05 04:23:13;;;;;;;3.70;2.65;;;15.20;66.40;;;;;;5038167;28;20063;-71
2021/10/05 04:25:40;;;;;;;4.40;1.63;;;15.20;66.50;;;;;;5038979;28;20127;-75
2021/10/05 04:28:06;;;;;;;12.35;6.95;;;15.20;66.90;;;;;;5040279;28;20419;-70
2021/10/05 04:30:33;;;;;;;9.75;4.43;;;15.20;66.80;;;;;;5042317;28;20016;-72
2021/10/05 04:32:59;;;;;;;2.58;1.58;;;15.20;66.80;;;;;;5043815;28;20036;-72
2021/10/05 04:35:27;;;;;;;5.25;1.30;;;15.20;66.70;;;;;;5039013;28;20076;-73
2021/10/05 04:37:54;;;;;;;5.32;1.38;;;15.20;66.60;;;;;;5043270;28;20541;-71
2021/10/05 04:40:20;;;;;;;11.10;1.80;;;15.20;66.60;;;;;;5037199;28;20021;-73
2021/10/05 04:42:47;;;;;;;4.45;1.20;;;15.20;66.50;;;;;;5045587;28;20037;-82
2021/10/05 04:45:13;;;;;;;3.47;1.27;;;15.20;66.40;;;;;;5037439;28;20035;-79
2021/10/05 04:47:40;;;;;;;4.15;1.40;;;15.20;66.30;;;;;;5043549;28;20116;-81
2021/10/05 04:50:08;;;;;;;9.00;1.52;;;15.20;66.00;;;;;;5043663;28;20014;-77
2021/10/05 04:52:35;;;;;;;5.15;1.63;;;15.20;65.90;;;;;;5040600;28;20016;-73
2021/10/05 04:55:03;;;;;;;4.22;1.83;;;15.30;65.80;;;;;;5045033;28;20029;-76
2021/10/05 04:57:29;;;;;;;7.32;1.60;;;15.30;65.80;;;;;;5038655;28;20391;-76
2021/10/05 05:00:35;;;;;;;5.38;1.80;;;15.30;65.80;;;;;;5039326;28;20508;-76
2021/10/05 05:03:42;;;;;;;7.15;2.00;;;15.30;65.80;;;;;;5034950;28;20121;-73
2021/10/05 05:06:08;;;;;;;3.42;1.17;;;15.40;65.90;;;;;;5035209;28;20021;-76
2021/10/05 05:08:35;;;;;;;4.07;1.10;;;15.40;65.80;;;;;;5033831;28;20025;-75
2021/10/05 05:11:03;;;;;;;9.73;1.75;;;15.40;65.70;;;;;;5035549;28;20033;-76
2021/10/05 05:13:29;;;;;;;4.05;1.08;;;15.50;65.80;;;;;;5037295;28;20127;-75
2021/10/05 05:15:56;;;;;;;5.43;1.70;;;15.50;65.70;;;;;;5034145;28;20087;-74
2021/10/05 05:18:23;;;;;;;3.13;1.30;;;15.50;65.70;;;;;;5034619;28;20029;-74
2021/10/05 05:21:29;;;;;;;5.82;1.42;;;15.50;65.70;;;;;;5037075;28;20025;-75
2021/10/05 05:24:35;;;;;;;4.75;1.10;;;15.50;65.80;;;;;;5030891;28;20100;-74
2021/10/05 05:27:41;;;;;;;4.88;1.08;;;15.60;65.90;;;;;;5032548;28;20115;-76
2021/10/05 05:30:09;;;;;;;5.90;1.52;;;15.60;65.90;;;;;;5035623;28;20026;-76
2021/10/05 05:32:35;;;;;;;3.95;1.75;;;15.60;65.80;;;;;;5034159;28;20029;-75
2021/10/05 05:35:02;;;;;;;6.28;1.63;;;15.70;66.00;;;;;;5035967;28;20001;-75
2021/10/05 05:37:29;;;;;;;7.30;1.17;;;15.70;65.90;;;;;;5033667;28;20978;-77
2021/10/05 05:39:56;;;;;;;6.07;2.00;;;15.80;65.80;;;;;;5032939;28;20021;-76
2021/10/05 05:42:22;;;;;;;5.65;1.75;;;15.80;65.80;;;;;;5034129;28;20492;-76
2021/10/05 05:44:50;;;;;;;2.78;1.10;;;15.80;65.90;;;;;;5035658;28;20025;-75
2021/10/05 05:47:17;;;;;;;4.40;1.20;;;15.80;65.80;;;;;;5039132;28;20071;-77
2021/10/05 05:49:44;;;;;;;4.03;1.48;;;15.90;65.70;;;;;;5035125;28;20049;-76
2021/10/05 05:52:10;;;;;;;5.22;1.60;;;15.90;65.70;;;;;;5038172;28;20020;-76
2021/10/05 05:54:37;;;;;;;3.22;1.30;;;16.00;65.70;;;;;;5043680;28;20018;-76
2021/10/05 05:57:03;;;;;;;5.03;1.45;;;16.00;65.60;;;;;;5037198;28;20500;-76
2021/10/05 05:59:30;;;;;;;5.90;2.45;;;16.00;65.50;;;;;;5034729;28;20148;-74
2021/10/05 06:01:56;;;;;;;3.40;1.48;;;16.10;65.30;;;;;;5039464;28;20041;-76
2021/10/05 06:04:23;;;;;;;4.80;2.83;;;16.10;65.00;;;;;;5038630;28;20025;-76
2021/10/05 06:06:49;;;;;;;3.65;1.40;;;16.20;64.80;;;;;;5037549;28;20087;-76
2021/10/05 06:09:16;;;;;;;3.22;1.90;;;16.20;64.60;;;;;;5044659;28;20403;-75
2021/10/05 06:11:43;;;;;;;6.32;2.00;;;16.30;64.10;;;;;;5039250;28;20384;-77
2021/10/05 06:14:10;;;;;;;6.88;2.63;;;16.30;63.80;;;;;;5039740;28;20021;-75
2021/10/05 06:16:36;;;;;;;4.78;1.65;;;16.30;63.40;;;;;;5040911;28;20025;-78
2021/10/05 06:19:03;;;;;;;4.05;2.55;;;16.40;63.40;;;;;;5036512;28;20128;-76
2021/10/05 06:21:29;;;;;;;7.90;2.30;;;16.50;62.90;;;;;;5038052;28;20036;-74
2021/10/05 06:23:55;;;;;;;5.88;1.60;;;16.50;62.30;;;;;;5039992;28;20024;-76
2021/10/05 06:26:22;;;;;;;8.90;1.70;;;16.50;61.40;;;;;;5047857;28;20092;-74
2021/10/05 06:28:48;;;;;;;7.50;2.22;;;16.60;61.10;;;;;;5043094;28;20026;-77
2021/10/05 06:31:15;;;;;;;7.32;1.67;;;16.60;60.90;;;;;;5037980;28;20519;-77
2021/10/05 06:33:41;;;;;;;4.32;2.05;;;16.70;60.20;;;;;;5046621;28;20028;-77
2021/10/05 06:36:09;;;;;;;6.00;2.22;;;16.70;60.80;;;;;;5045187;28;20468;-77
2021/10/05 06:38:36;;;;;;;7.60;2.75;;;16.80;59.70;;;;;;5056320;28;20402;-78
2021/10/05 06:41:02;;;;;;;3.72;1.50;;;16.80;59.30;;;;;;5039353;28;20040;-78
2021/10/05 06:43:29;;;;;;;6.97;2.20;;;16.90;59.00;;;;;;5038700;28;20028;-77
2021/10/05 06:45:55;;;;;;;8.40;2.53;;;17.00;58.80;;;;;;5042146;28;20102;-77
2021/10/05 06:48:22;;;;;;;6.47;2.45;;;17.00;58.80;;;;;;5040400;28;20518;-78
2021/10/05 06:50:48;;;;;;;7.70;1.92;;;17.10;58.60;;;;;;5041921;28;20021;-78
2021/10/05 06:53:18;;;;;;;4.53;2.20;;;17.10;58.70;;;;;;5040980;28;20013;-78
2021/10/05 06:55:46;;;;;;;8.25;3.60;;;17.20;59.10;;;;;;5041783;28;20028;-76
2021/10/05 06:58:13;;;;;;;5.75;1.95;;;17.30;59.50;;;;;;5036624;28;20041;-78
2021/10/05 07:00:40;;;;;;;4.60;1.63;;;17.40;59.90;;;;;;5042903;28;20026;-77
2021/10/05 07:03:07;;;;;;;4.18;1.60;;;17.50;59.90;;;;;;5047516;28;20040;-77
2021/10/05 07:05:33;;;;;;;11.18;1.88;;;17.50;59.70;;;;;;5045921;28;20068;-77
2021/10/05 07:08:04;;;;;;;5.32;1.80;;;17.60;60.00;;;;;;5040168;28;20029;-77
2021/10/05 07:10:30;;;;;;;3.60;1.58;;;17.70;60.10;;;;;;5050646;28;20032;-77
2021/10/05 07:12:57;;;;;;;2.63;1.60;;;17.80;59.80;;;;;;5047484;28;20018;-77
2021/10/05 07:15:24;;;;;;;3.53;1.83;;;17.90;59.90;;;;;;5044299;28;20059;-77
2021/10/05 07:17:54;;;;;;;4.13;1.20;;;18.00;59.30;;;;;;5043930;28;20087;-76
2021/10/05 07:20:21;;;;;;;4.25;1.58;;;18.10;59.10;;;;;;5043119;28;20017;-77
2021/10/05 07:22:48;;;;;;;6.45;1.23;;;18.10;58.20;;;;;;5044639;28;20478;-78
2021/10/05 07:25:16;;;;;;;1.63;0.90;;;18.20;57.00;;;;;;5052858;28;20532;-77
2021/10/05 07:27:50;;;;;;;3.45;1.45;;;18.30;56.00;;;;;;5034301;28;20026;-77
2021/10/05 07:30:18;;;;;;;5.40;1.15;;;18.40;55.40;;;;;;5047394;28;20091;-78
2021/10/05 07:32:45;;;;;;;3.50;1.27;;;18.50;54.20;;;;;;5045337;28;20614;-77
2021/10/05 07:35:11;;;;;;;5.43;1.20;;;18.60;53.20;;;;;;5052086;28;20021;-77
2021/10/05 07:37:38;;;;;;;2.80;1.20;;;18.70;52.90;;;;;;5034984;28;20026;-78
2021/10/05 07:40:05;;;;;;;1.70;1.15;;;18.80;52.50;;;;;;5040706;28;20014;-77
2021/10/05 07:42:31;;;;;;;2.28;1.00;;;18.90;51.30;;;;;;5046969;28;20040;-77
2021/10/05 07:44:58;;;;;;;5.50;1.77;;;18.90;51.00;;;;;;5040093;28;20515;-77
2021/10/05 07:47:24;;;;;;;5.03;1.33;;;19.00;50.90;;;;;;5041006;28;20022;-77
2021/10/05 07:49:52;;;;;;;2.42;1.42;;;19.00;51.20;;;;;;5036182;28;20033;-77
2021/10/05 07:52:20;;;;;;;9.20;1.95;;;19.10;51.60;;;;;;5044236;28;20028;-77
2021/10/05 07:54:47;;;;;;;2.85;1.40;;;19.20;51.00;;;;;;5046237;28;20029;-77
2021/10/05 07:57:13;;;;;;;5.03;1.38;;;19.30;50.80;;;;;;5042353;28;20445;-78
2021/10/05 07:59:40;;;;;;;4.82;1.52;;;19.40;50.60;;;;;;5037362;28;20049;-77
2021/10/05 08:02:06;;;;;;;4.97;1.60;;;19.40;50.30;;;;;;5044345;28;20071;-78
2021/10/05 08:04:33;;;;;;;9.18;2.10;;;19.50;49.60;;;;;;5048188;28;20457;-77
2021/10/05 08:06:59;;;;;;;6.90;2.15;;;19.60;49.10;;;;;;5039627;28;20017;-77
2021/10/05 08:09:26;;;;;;;5.00;2.13;;;19.80;48.50;;;;;;5039839;28;20108;-77
2021/10/05 08:11:52;;;;;;;3.25;1.80;;;19.90;48.00;;;;;;5047868;28;20017;-78
2021/10/05 08:14:19;;;;;;;6.47;1.42;;;19.90;48.00;;;;;;5044219;28;20025;-76
2021/10/05 08:16:46;;;;;;;2.30;1.00;;;20.00;48.30;;;;;;5043630;28;20045;-78
2021/10/05 08:19:13;;;;;;;3.15;1.20;;;20.10;48.90;;;;;;5041357;28;20361;-77
2021/10/05 08:21:39;;;;;;;6.72;1.20;;;20.20;49.40;;;;;;5041390;28;20083;-78
2021/10/05 08:24:06;;;;;;;6.47;1.73;;;20.30;49.80;;;;;;5045689;28;20025;-78
2021/10/05 08:26:32;;;;;;;5.53;2.65;;;20.40;49.90;;;;;;5040496;28;20051;-77
2021/10/05 08:28:59;;;;;;;4.65;1.20;;;20.50;50.40;;;;;;5044655;28;20029;-78
2021/10/05 08:31:25;;;;;;;5.32;1.88;;;20.50;49.20;;;;;;5042052;28;20329;-78
2021/10/05 08:33:52;;;;;;;2.50;1.33;;;20.60;49.10;;;;;;5044001;28;20037;-76
2021/10/05 08:36:19;;;;;;;4.43;1.48;;;20.70;49.50;;;;;;5041624;28;20415;-78
2021/10/05 08:38:46;;;;;;;4.40;1.23;;;20.80;49.30;;;;;;5035698;28;20041;-78
2021/10/05 08:41:13;;;;;;;2.78;1.25;;;20.90;48.50;;;;;;5041538;28;20045;-77
2021/10/05 08:43:41;;;;;;;4.05;1.60;;;20.90;48.10;;;;;;5043106;28;20629;-77
2021/10/05 08:46:09;;;;;;;2.40;1.88;;;21.00;47.70;;;;;;5045607;28;20032;-77
2021/10/05 08:48:37;;;;;;;3.85;1.20;;;21.10;47.70;;;;;;5042369;28;20055;-78
2021/10/05 08:51:05;;;;;;;2.50;1.08;;;21.20;47.00;;;;;;5043349;28;20017;-79
2021/10/05 08:53:38;;;;;;;5.30;1.42;;;21.30;46.00;;;;;;5045189;28;20014;-78
2021/10/05 08:56:06;;;;;;;5.03;1.13;;;21.40;45.70;;;;;;5037547;28;20018;-77
2021/10/05 08:58:33;;;;;;;1.15;0.85;;;21.50;45.30;;;;;;5045669;28;20036;-77
2021/10/05 09:01:13;;;;;;;3.78;0.88;;;21.50;43.60;;;;;;5045209;28;20099;-77
2021/10/05 09:03:54;;;;;;;3.42;0.88;;;21.60;43.90;;;;;;5038976;28;20423;-77
2021/10/05 09:06:23;;;;;;;7.70;1.45;;;21.80;43.50;;;;;;5050022;28;20033;-78
2021/10/05 09:08:53;;;;;;;1.83;0.75;;;21.90;42.30;;;;;;5042177;28;20354;-78
2021/10/05 09:11:24;;;;;;;2.60;0.77;;;22.00;42.20;;;;;;5041446;28;20104;-78
2021/10/05 09:13:56;;;;;;;4.60;1.20;;;22.10;42.20;;;;;;5039682;28;20017;-78
2021/10/05 09:16:28;;;;;;;2.75;1.05;;;22.20;42.30;;;;;;5043661;28;20021;-79
2021/10/05 09:18:59;;;;;;;2.45;0.90;;;22.40;41.60;;;;;;5043042;28;20029;-78
2021/10/05 09:21:50;;;;;;;4.03;0.95;;;22.50;41.40;;;;;;5042872;28;20044;-77
2021/10/05 09:24:25;;;;;;;4.10;1.20;;;22.60;41.30;;;;;;5044679;28;20029;-77
2021/10/05 09:26:59;;;;;;;45.72;2.78;;;22.60;40.50;;;;;;5035611;28;20025;-78
2021/10/05 09:29:34;;;;;;;1.67;0.93;;;22.70;40.60;;;;;;5039114;28;20033;-77
2021/10/05 09:32:11;;;;;;;;;;;22.80;40.00;;;;;;5040470;28;20108;-77
2021/10/05 09:35:00;;;;;;;9.10;1.40;;;22.90;40.30;;;;;;5044725;28;19912;-77
2021/10/05 09:37:34;;;;;;;5.32;1.13;;;23.00;39.80;;;;;;5035373;28;20025;-77
2021/10/05 09:40:12;;;;;;;4.18;1.13;;;23.10;39.70;;;;;;5038096;28;20468;-77
2021/10/05 09:42:44;;;;;;;3.83;1.08;;;23.20;39.40;;;;;;5042016;28;20427;-77
2021/10/05 09:45:13;;;;;;;3.78;1.02;;;23.30;39.10;;;;;;5041559;28;20126;-78
2021/10/05 09:47:46;;;;;;;4.35;0.90;;;23.40;38.70;;;;;;5037311;28;20013;-78
2021/10/05 09:50:15;;;;;;;3.58;0.75;;;23.50;38.80;;;;;;5036344;28;20041;-78
2021/10/05 15:13:52;;;;;;;7.80;3.30;;;25.70;43.30;;;;;;5047965;28;20060;-76
2021/10/05 15:16:18;;;;;;;12.25;3.78;;;25.60;43.70;;;;;;5041378;28;20025;-76
2021/10/05 15:18:45;;;;;;;13.40;5.57;;;25.40;44.20;;;;;;5042017;28;20012;-74
2021/10/05 15:21:11;;;;;;;25.73;16.30;;;25.30;44.90;;;;;;5033890;28;20013;-75
2021/10/05 15:23:38;;;;;;;10.35;4.97;;;25.20;45.30;;;;;;5045903;28;20029;-72
2021/10/05 15:26:04;;;;;;;15.30;3.28;;;25.10;46.20;;;;;;5040567;28;20025;-74
2021/10/05 15:28:35;;;;;;;20.10;3.25;;;25.00;46.20;;;;;;5047873;28;20021;-72
2021/10/05 15:31:02;;;;;;;12.55;3.53;;;24.90;46.90;;;;;;5041076;28;20030;-71
2021/10/05 15:33:28;;;;;;;12.05;2.95;;;24.80;47.30;;;;;;5038593;28;21109;-72
2021/10/05 15:35:54;;;;;;;11.15;3.75;;;24.70;47.40;;;;;;5040887;28;20048;-72
2021/10/05 15:38:21;;;;;;;9.10;2.63;;;24.60;48.10;;;;;;5046322;28;20036;-73
2021/10/05 15:40:47;;;;;;;9.98;4.20;;;24.50;48.10;;;;;;5042803;28;20025;-73
2021/10/05 15:43:15;;;;;;;13.25;4.25;;;24.40;48.50;;;;;;5047410;28;20116;-72
2021/10/05 15:45:42;;;;;;;14.85;3.95;;;24.40;49.90;;;;;;5046969;28;20028;-74
2021/10/05 15:48:09;;;;;;;11.73;5.28;;;24.30;49.80;;;;;;5044157;28;20472;-74
2021/10/05 15:50:44;;;;;;;14.68;6.85;;;24.30;49.60;;;;;;5035858;28;20416;-76
2021/10/05 15:53:10;;;;;;;11.23;4.10;;;24.20;49.80;;;;;;5035345;28;20016;-76
2021/10/05 15:55:37;;;;;;;9.02;3.13;;;24.20;50.30;;;;;;5040061;28;20021;-76
2021/10/05 15:58:03;;;;;;;11.02;3.50;;;24.20;49.90;;;;;;5034788;28;20017;-80
2021/10/05 16:00:30;;;;;;;10.07;3.83;;;24.20;50.20;;;;;;5039619;28;20058;-75
2021/10/05 16:02:56;;;;;;;10.75;3.40;;;24.10;50.60;;;;;;5036267;28;20038;-75
2021/10/05 16:05:23;;;;;;;13.20;4.38;;;24.10;51.30;;;;;;5040172;28;20025;-76
2021/10/05 16:07:49;;;;;;;16.38;4.20;;;24.00;52.10;;;;;;5034568;28;20364;-77
2021/10/05 16:10:17;;;;;;;16.75;4.93;;;24.00;52.60;;;;;;5036313;28;20013;-75
2021/10/05 16:12:44;;;;;;;10.25;3.45;;;24.00;52.90;;;;;;5042219;28;20044;-77
2021/10/05 16:15:12;;;;;;;68.43;54.05;;;23.90;52.60;;;;;;5041706;28;20027;-79
2021/10/05 16:17:39;;;;;;;20.63;8.23;;;23.90;53.20;;;;;;5050501;28;20090;-82
2021/10/05 16:20:06;;;;;;;16.60;5.80;;;23.80;53.70;;;;;;5037826;28;20397;-77
2021/10/05 16:22:35;;;;;;;19.48;5.68;;;23.80;54.50;;;;;;5041119;28;20040;-77
2021/10/05 16:25:02;;;;;;;14.77;5.07;;;23.70;54.70;;;;;;5048713;28;20025;-81
2021/10/05 16:27:29;;;;;;;11.82;4.22;;;23.70;54.90;;;;;;5039368;28;20103;-80
2021/10/05 16:29:55;;;;;;;11.02;4.22;;;23.60;54.90;;;;;;5049029;28;20024;-80
2021/10/05 16:32:23;;;;;;;13.15;4.60;;;23.50;55.10;;;;;;5043181;28;20025;-72
2021/10/05 16:34:50;;;;;;;15.70;3.83;;;23.40;55.30;;;;;;5035915;28;20021;-79
2021/10/05 16:37:18;;;;;;;36.17;15.93;;;23.30;55.80;;;;;;5041880;28;20060;-76
2021/10/05 16:39:44;;;;;;;19.80;8.57;;;23.30;56.40;;;;;;5049830;28;20020;-78
2021/10/05 16:42:13;;;;;;;15.75;3.75;;;23.20;56.60;;;;;;5049694;28;20037;-77
2021/10/05 16:44:39;;;;;;;10.90;4.30;;;23.20;56.90;;;;;;5052342;28;20020;-76
2021/10/05 16:47:07;;;;;;;11.32;3.85;;;23.10;57.00;;;;;;5050579;28;20024;-79
2021/10/05 16:49:34;;;;;;;15.45;4.75;;;23.00;57.20;;;;;;5049904;28;20020;-78
2021/10/05 16:52:02;;;;;;;15.75;5.25;;;23.00;57.40;;;;;;5049843;28;20108;-75
2021/10/05 16:54:29;;;;;;;11.48;4.57;;;22.80;57.60;;;;;;5050486;28;20043;-77
2021/10/05 16:56:58;;;;;;;11.20;4.43;;;22.80;57.80;;;;;;5047717;28;20013;-78
2021/10/05 16:59:24;;;;;;;14.15;4.93;;;22.70;58.00;;;;;;5049155;28;20395;-77
2021/10/05 17:01:51;;;;;;;13.35;3.78;;;22.60;58.30;;;;;;5041423;28;20629;-75
2021/10/05 17:04:17;;;;;;;13.90;4.13;;;22.60;58.80;;;;;;5044278;28;20022;-77
2021/10/05 17:06:44;;;;;;;16.55;4.10;;;22.50;59.00;;;;;;5043252;28;20338;-78
2021/10/05 17:09:14;;;;;;;14.95;3.88;;;22.40;59.20;;;;;;5042740;28;20025;-74
2021/10/05 17:11:41;;;;;;;14.10;4.28;;;22.40;59.50;;;;;;5043722;28;20439;-75
2021/10/05 17:14:09;;;;;;;14.77;4.57;;;22.30;59.60;;;;;;5044822;28;20036;-75
2021/10/05 17:16:36;;;;;;;11.75;3.97;;;22.20;59.80;;;;;;5038745;28;20014;-76
2021/10/05 17:19:03;;;;;;;36.53;23.65;;;22.20;60.30;;;;;;5048768;28;20017;-76
2021/10/05 17:21:29;;;;;;;24.77;11.38;;;22.10;60.60;;;;;;5046215;28;20017;-78
2021/10/05 17:23:56;;;;;;;20.00;4.78;;;22.10;60.70;;;;;;5039517;28;20025;-77
2021/10/05 17:26:22;;;;;;;19.15;4.90;;;22.00;60.90;;;;;;5043513;28;20053;-76
2021/10/05 17:28:53;;;;;;;18.00;4.40;;;21.90;60.90;;;;;;5039864;28;20039;-74
2021/10/05 17:31:19;;;;;;;18.15;4.60;;;21.90;61.10;;;;;;5043907;28;20148;-77
2021/10/05 17:33:45;;;;;;;16.55;6.13;;;21.90;61.30;;;;;;5041443;28;20025;-76
2021/10/05 17:36:12;;;;;;;20.40;5.50;;;21.80;61.40;;;;;;5051162;28;20492;-77
2021/10/05 17:38:38;;;;;;;13.02;4.72;;;21.80;61.40;;;;;;5038229;28;20032;-77
2021/10/05 17:41:05;;;;;;;18.30;6.82;;;21.80;61.50;;;;;;5043025;28;20018;-75
2021/10/05 17:43:31;;;;;;;13.45;5.43;;;21.80;61.60;;;;;;5043778;28;20040;-76
2021/10/05 17:45:58;;;;;;;18.95;4.13;;;21.70;61.60;;;;;;5037324;28;20420;-75
2021/10/05 17:48:25;;;;;;;12.95;4.35;;;21.70;61.60;;;;;;5036102;28;20021;-76
2021/10/05 17:50:51;;;;;;;17.33;5.97;;;21.70;61.80;;;;;;5036149;28;20027;-76
2021/10/05 17:53:18;;;;;;;16.75;5.18;;;21.60;62.00;;;;;;5042412;28;20025;-75
2021/10/05 17:55:44;;;;;;;14.77;4.18;;;21.60;62.10;;;;;;5033768;28;20496;-76
2021/10/05 17:58:11;;;;;;;13.77;4.82;;;21.50;62.10;;;;;;5030497;28;20076;-75
2021/10/05 18:00:37;;;;;;;37.30;25.40;;;21.50;62.10;;;;;;5030709;28;20032;-75
2021/10/05 18:03:03;;;;;;;43.65;26.27;;;21.50;62.30;;;;;;5032725;28;20500;-75
2021/10/05 18:05:30;;;;;;;27.27;9.77;;;21.40;62.40;;;;;;5037956;28;20025;-77
2021/10/05 18:07:57;;;;;;;15.15;4.55;;;21.40;62.50;;;;;;5037033;28;20036;-73